createdAt,value
2022-08-30T00:00:47.405Z,4.50
2022-08-30T00:02:51.689Z,4.80
2022-08-30T00:06:58.026Z,5.50
2022-08-30T00:09:00.968Z,5.35
2022-08-30T00:11:05.464Z,12.27
2022-08-30T00:15:14.672Z,6.68
2022-08-30T00:17:19.264Z,6.13
2022-08-30T00:19:23.437Z,8.40
2022-08-30T00:21:27.052Z,5.30
2022-08-30T00:23:29.895Z,5.63
2022-08-30T00:25:33.261Z,4.13
2022-08-30T00:27:36.204Z,5.28
2022-08-30T00:29:39.103Z,5.18
2022-08-30T00:31:41.972Z,6.25
2022-08-30T00:33:45.014Z,8.68
2022-08-30T00:35:49.305Z,4.53
2022-08-30T00:37:52.574Z,5.70
2022-08-30T00:39:55.379Z,10.57
2022-08-30T00:41:58.238Z,7.63
2022-08-30T00:44:01.125Z,7.60
2022-08-30T00:46:08.672Z,4.38
2022-08-30T00:48:11.721Z,5.63
2022-08-30T00:50:17.605Z,5.93
2022-08-30T00:52:23.786Z,4.95
2022-08-30T00:54:27.185Z,5.80
2022-08-30T00:56:31.761Z,5.88
2022-08-30T00:58:38.153Z,6.47
2022-08-30T01:00:41.253Z,3.15
2022-08-30T01:02:44.506Z,5.88
2022-08-30T01:04:51.898Z,5.55
2022-08-30T01:06:55.129Z,10.27
2022-08-30T01:08:59.559Z,5.57
2022-08-30T01:11:05.683Z,4.20
2022-08-30T01:13:10.382Z,8.65
2022-08-30T01:15:15.416Z,6.53
2022-08-30T01:17:21.327Z,7.85
2022-08-30T01:19:37.083Z,6.47
2022-08-30T01:21:43.704Z,7.30
2022-08-30T01:24:09.945Z,6.35
2022-08-30T01:26:15.912Z,8.10
2022-08-30T01:28:23.982Z,6.38
2022-08-30T01:30:26.783Z,7.97
2022-08-30T01:32:30.316Z,7.78
2022-08-30T01:34:33.173Z,10.60
2022-08-30T01:36:38.147Z,10.30
2022-08-30T01:38:50.327Z,7.38
2022-08-30T01:41:01.743Z,7.68
2022-08-30T01:43:05.032Z,7.15
2022-08-30T01:45:09.888Z,5.93
2022-08-30T01:47:12.814Z,7.15
2022-08-30T01:49:18.964Z,5.78
2022-08-30T01:53:34.443Z,6.43
2022-08-30T01:55:38.866Z,5.93
2022-08-30T01:59:47.691Z,9.85
2022-08-30T02:01:51.111Z,13.40
2022-08-30T02:03:56.781Z,7.80
2022-08-30T02:06:04.292Z,6.70
2022-08-30T02:08:07.750Z,6.32
2022-08-30T02:10:11.426Z,7.97
2022-08-30T02:12:15.229Z,4.88
2022-08-30T02:14:21.208Z,9.43
2022-08-30T02:16:25.336Z,8.80
2022-08-30T02:18:28.766Z,6.85
2022-08-30T02:20:31.574Z,8.88
2022-08-30T02:22:34.598Z,5.82
2022-08-30T02:24:37.795Z,7.40
2022-08-30T02:26:40.673Z,9.13
2022-08-30T02:28:49.939Z,8.43
2022-08-30T02:30:54.858Z,9.80
2022-08-30T02:32:57.945Z,6.97
2022-08-30T02:35:00.600Z,10.52
2022-08-30T02:37:04.596Z,5.05
2022-08-30T02:39:07.795Z,5.55
2022-08-30T02:41:10.673Z,5.75
2022-08-30T02:43:13.515Z,8.68
2022-08-30T02:45:17.067Z,5.82
2022-08-30T02:47:23.404Z,12.30
2022-08-30T02:49:34.204Z,6.35
2022-08-30T02:51:39.022Z,7.72
2022-08-30T02:53:43.646Z,5.22
2022-08-30T02:55:46.784Z,5.03
2022-08-30T02:57:49.937Z,7.50
2022-08-30T02:59:53.502Z,9.73
2022-08-30T03:01:56.328Z,5.80
2022-08-30T03:04:00.611Z,7.28
2022-08-30T03:06:04.229Z,9.38
2022-08-30T03:08:07.317Z,7.72
2022-08-30T03:10:11.450Z,5.25
2022-08-30T03:12:17.069Z,7.22
2022-08-30T03:14:19.987Z,6.32
2022-08-30T03:16:22.871Z,9.13
2022-08-30T03:18:28.303Z,8.20
2022-08-30T03:20:32.528Z,5.78
2022-08-30T03:22:35.454Z,8.38
2022-08-30T03:24:38.746Z,9.90
2022-08-30T03:26:46.068Z,9.55
2022-08-30T03:28:49.369Z,9.80
2022-08-30T03:30:52.227Z,5.75
2022-08-30T03:32:55.063Z,5.88
2022-08-30T03:34:57.915Z,6.88
2022-08-30T03:37:02.240Z,6.28
2022-08-30T03:39:05.269Z,7.05
2022-08-30T03:41:11.282Z,5.78
2022-08-30T03:43:14.126Z,10.50
2022-08-30T03:45:19.014Z,7.60
2022-08-30T03:47:21.972Z,8.40
2022-08-30T03:49:28.250Z,8.75
2022-08-30T03:51:31.098Z,7.93
2022-08-30T03:53:35.699Z,7.95
2022-08-30T03:55:38.568Z,10.35
2022-08-30T03:57:43.738Z,4.75
2022-08-30T03:59:46.775Z,8.48
2022-08-30T04:01:49.618Z,10.10
2022-08-30T04:03:52.500Z,8.13
2022-08-30T04:05:56.483Z,7.30
2022-08-30T04:07:59.453Z,7.80
2022-08-30T04:10:03.880Z,7.47
2022-08-30T04:12:06.899Z,8.75
2022-08-30T04:14:09.798Z,7.13
2022-08-30T04:16:12.676Z,11.73
2022-08-30T04:18:16.323Z,6.43
2022-08-30T04:20:19.562Z,9.50
2022-08-30T04:22:22.984Z,11.48
2022-08-30T04:24:26.085Z,11.40
2022-08-30T04:26:30.360Z,8.38
2022-08-30T04:28:33.910Z,9.48
2022-08-30T04:30:40.182Z,6.47
2022-08-30T04:32:43.747Z,5.22
2022-08-30T04:34:46.635Z,10.37
2022-08-30T04:36:52.753Z,12.93
2022-08-30T04:38:55.647Z,8.95
2022-08-30T04:41:00.459Z,6.13
2022-08-30T04:43:05.420Z,6.23
2022-08-30T04:45:10.861Z,9.02
2022-08-30T04:47:13.723Z,11.50
2022-08-30T04:49:16.601Z,9.90
2022-08-30T04:51:19.872Z,8.80
2022-08-30T04:53:23.293Z,11.65
2022-08-30T04:55:26.508Z,9.88
2022-08-30T04:57:29.948Z,8.85
2022-08-30T04:59:34.379Z,8.65
2022-08-30T05:01:44.786Z,6.53
2022-08-30T05:03:48.861Z,7.00
2022-08-30T05:05:52.252Z,11.05
2022-08-30T05:07:55.641Z,8.63
2022-08-30T05:09:58.693Z,8.15
2022-08-30T05:12:01.566Z,9.30
2022-08-30T05:14:04.377Z,11.85
2022-08-30T05:16:09.765Z,12.85
2022-08-30T05:18:14.310Z,10.30
2022-08-30T05:20:17.484Z,13.25
2022-08-30T05:22:20.319Z,11.32
2022-08-30T05:24:23.315Z,17.33
2022-08-30T05:26:29.139Z,16.33
2022-08-30T05:28:31.952Z,13.55
2022-08-30T05:30:37.083Z,13.00
2022-08-30T05:32:42.009Z,14.43
2022-08-30T05:34:44.847Z,12.30
2022-08-30T05:36:47.745Z,15.13
2022-08-30T05:38:51.316Z,10.52
2022-08-30T05:40:54.970Z,9.20
2022-08-30T05:42:57.824Z,10.55
2022-08-30T05:45:03.497Z,9.20
2022-08-30T05:47:06.711Z,9.52
2022-08-30T05:49:10.918Z,9.65
2022-08-30T05:51:17.017Z,14.68
2022-08-30T05:53:19.933Z,10.98
2022-08-30T05:55:23.302Z,9.88
2022-08-30T05:57:26.303Z,14.65
2022-08-30T05:59:29.187Z,9.48
2022-08-30T06:01:33.993Z,8.27
2022-08-30T06:03:36.910Z,15.98
2022-08-30T06:05:41.309Z,12.30
2022-08-30T06:09:47.276Z,14.20
2022-08-30T06:11:50.196Z,16.98
2022-08-30T06:13:54.174Z,15.48
2022-08-30T06:15:57.320Z,16.48
2022-08-30T06:18:02.833Z,13.65
2022-08-30T06:20:06.673Z,12.98
2022-08-30T06:22:10.849Z,20.77
2022-08-30T06:24:13.778Z,15.60
2022-08-30T06:26:17.801Z,20.67
2022-08-30T06:28:20.814Z,17.27
2022-08-30T06:30:23.635Z,15.57
2022-08-30T06:32:26.561Z,13.25
2022-08-30T06:34:29.444Z,17.83
2022-08-30T06:36:32.462Z,13.70
2022-08-30T06:38:37.484Z,14.20
2022-08-30T06:40:40.827Z,22.58
2022-08-30T06:42:44.060Z,15.48
2022-08-30T06:44:46.937Z,14.63
2022-08-30T06:46:50.034Z,20.38
2022-08-30T06:48:53.349Z,15.18
2022-08-30T06:50:59.792Z,19.83
2022-08-30T06:53:05.851Z,20.05
2022-08-30T06:55:10.928Z,29.35
2022-08-30T06:57:14.338Z,31.50
2022-08-30T06:59:18.013Z,23.83
2022-08-30T07:01:24.747Z,22.52
2022-08-30T07:03:30.494Z,26.02
2022-08-30T07:05:34.063Z,20.13
2022-08-30T07:07:37.067Z,15.07
2022-08-30T07:09:43.165Z,28.80
2022-08-30T07:11:47.454Z,17.25
2022-08-30T07:13:50.316Z,16.98
2022-08-30T07:15:53.687Z,17.52
2022-08-30T07:18:14.093Z,14.10
2022-08-30T07:20:18.589Z,15.50
2022-08-30T07:22:21.984Z,12.60
2022-08-30T07:24:24.929Z,19.02
2022-08-30T07:26:31.310Z,10.23
2022-08-30T07:28:38.223Z,8.00
2022-08-30T07:30:42.232Z,17.13
2022-08-30T07:32:45.492Z,9.13
2022-08-30T07:34:51.749Z,17.15
2022-08-30T07:36:54.706Z,13.85
2022-08-30T07:38:57.611Z,11.45
2022-08-30T07:41:01.229Z,12.98
2022-08-30T07:43:04.142Z,7.20
2022-08-30T07:45:09.544Z,7.57
2022-08-30T07:47:12.953Z,7.10
2022-08-30T07:49:15.774Z,9.48
2022-08-30T07:51:21.188Z,10.07
2022-08-30T07:53:24.423Z,10.25
2022-08-30T07:55:27.250Z,8.13
2022-08-30T07:57:33.483Z,11.32
2022-08-30T07:59:36.480Z,18.95
2022-08-30T08:01:40.841Z,12.20
2022-08-30T08:03:44.404Z,12.18
2022-08-30T08:05:48.038Z,12.55
2022-08-30T08:07:50.832Z,16.08
2022-08-30T08:09:53.684Z,10.52
2022-08-30T08:11:56.870Z,18.15
2022-08-30T08:13:59.998Z,16.10
2022-08-30T08:16:03.249Z,13.07
2022-08-30T08:18:07.811Z,18.20
2022-08-30T08:22:21.870Z,9.05
2022-08-30T08:24:25.147Z,20.63
2022-08-30T08:26:28.018Z,15.73
2022-08-30T08:28:31.049Z,14.52
2022-08-30T08:30:36.625Z,22.15
2022-08-30T08:32:41.726Z,20.02
2022-08-30T08:34:46.445Z,14.25
2022-08-30T08:36:49.297Z,13.48
2022-08-30T08:38:52.210Z,16.60
2022-08-30T08:41:04.849Z,18.38
2022-08-30T08:43:13.028Z,12.00
2022-08-30T08:45:24.919Z,15.93
2022-08-30T08:47:38.324Z,10.77
2022-08-30T08:49:45.292Z,20.80
2022-08-30T08:52:07.136Z,15.63
2022-08-30T08:54:14.326Z,17.27
2022-08-30T08:56:19.134Z,26.33
2022-08-30T08:58:25.290Z,19.10
2022-08-30T09:00:30.018Z,19.25
2022-08-30T09:02:41.020Z,22.38
2022-08-30T09:04:44.701Z,13.75
2022-08-30T09:06:54.814Z,9.85
2022-08-30T09:08:58.194Z,9.38
2022-08-30T09:11:04.378Z,18.58
2022-08-30T09:13:07.442Z,12.55
2022-08-30T09:15:25.236Z,16.60
2022-08-30T09:17:28.532Z,13.88
2022-08-30T09:19:43.303Z,7.90
2022-08-30T09:21:46.428Z,14.57
2022-08-30T09:23:55.795Z,14.10
2022-08-30T09:26:00.424Z,12.80
2022-08-30T09:28:12.168Z,12.35
2022-08-30T09:30:18.583Z,11.35
2022-08-30T09:32:30.293Z,9.82
2022-08-30T09:34:34.506Z,11.07
2022-08-30T09:36:43.720Z,18.77
2022-08-30T09:38:46.894Z,12.43
2022-08-30T09:40:54.790Z,11.00
2022-08-30T09:43:07.711Z,8.60
2022-08-30T09:45:21.815Z,12.17
2022-08-30T09:47:31.781Z,10.48
2022-08-30T09:49:37.851Z,15.30
2022-08-30T09:51:49.564Z,17.77
2022-08-30T09:54:17.504Z,11.55
2022-08-30T09:56:34.686Z,11.35
2022-08-30T09:58:52.910Z,14.23
2022-08-30T10:01:02.590Z,16.85
2022-08-30T10:03:36.191Z,14.68
2022-08-30T10:05:52.890Z,13.02
2022-08-30T10:08:05.477Z,10.80
2022-08-30T10:10:15.347Z,11.30
2022-08-30T10:12:26.983Z,10.70
2022-08-30T10:14:47.245Z,20.40
2022-08-30T10:16:59.315Z,12.05
2022-08-30T10:19:13.816Z,13.93
2022-08-30T10:21:26.440Z,9.85
2022-08-30T10:23:34.188Z,14.77
2022-08-30T10:25:41.056Z,6.88
2022-08-30T10:27:52.069Z,10.80
2022-08-30T10:30:00.640Z,11.93
2022-08-30T10:32:11.702Z,10.75
2022-08-30T10:34:20.164Z,10.45
2022-08-30T10:36:32.330Z,8.93
2022-08-30T10:38:38.692Z,10.50
2022-08-30T10:41:03.533Z,14.40
2022-08-30T10:43:20.261Z,11.02
2022-08-30T10:45:27.620Z,12.02
2022-08-30T10:47:38.408Z,7.45
2022-08-30T10:49:45.046Z,7.20
2022-08-30T10:51:55.617Z,11.75
2022-08-30T10:54:10.532Z,17.85
2022-08-30T10:56:18.585Z,12.50
2022-08-30T10:58:24.996Z,8.45
2022-08-30T11:00:31.279Z,5.45
2022-08-30T11:03:09.360Z,7.63
2022-08-30T11:05:45.709Z,8.88
2022-08-30T11:07:57.821Z,6.15
2022-08-30T11:10:18.730Z,6.55
2022-08-30T11:12:33.723Z,7.80
2022-08-30T11:14:40.897Z,7.63
2022-08-30T11:16:50.630Z,7.88
2022-08-30T11:18:56.294Z,10.63
2022-08-30T11:21:22.551Z,11.15
2022-08-30T11:23:32.690Z,7.13
2022-08-30T11:25:56.807Z,6.97
2022-08-30T11:28:00.806Z,9.30
2022-08-30T11:30:42.427Z,10.25
2022-08-30T11:33:07.987Z,6.05
2022-08-30T11:35:32.696Z,9.98
2022-08-30T11:37:41.722Z,12.23
2022-08-30T11:39:57.200Z,8.45
2022-08-30T11:42:12.377Z,6.15
2022-08-30T11:44:32.776Z,7.78
2022-08-30T11:46:38.850Z,7.78
2022-08-30T11:48:54.633Z,10.07
2022-08-30T11:51:05.158Z,4.40
2022-08-30T11:53:17.327Z,8.43
2022-08-30T11:55:49.648Z,8.27
2022-08-30T11:58:01.775Z,7.43
2022-08-30T12:00:11.043Z,7.70
2022-08-30T12:02:44.913Z,8.15
2022-08-30T12:04:49.386Z,8.43
2022-08-30T12:06:56.992Z,6.60
2022-08-30T12:09:02.743Z,5.15
2022-08-30T12:11:44.313Z,7.90
2022-08-30T12:13:56.093Z,8.30
2022-08-30T12:16:01.620Z,8.43
2022-08-30T12:18:23.754Z,7.18
2022-08-30T12:20:39.437Z,6.78
2022-08-30T12:22:42.391Z,7.80
2022-08-30T12:24:51.598Z,6.47
2022-08-30T12:26:58.154Z,7.20
2022-08-30T12:29:18.422Z,9.38
2022-08-30T12:31:24.554Z,5.65
2022-08-30T12:33:36.591Z,5.68
2022-08-30T12:35:45.529Z,6.13
2022-08-30T12:37:58.016Z,4.28
2022-08-30T12:40:04.127Z,8.45
2022-08-30T12:42:17.614Z,5.50
2022-08-30T12:44:23.536Z,5.80
2022-08-30T12:46:27.658Z,7.47
2022-08-30T12:50:39.114Z,6.82
2022-08-30T12:52:45.815Z,7.97
2022-08-30T12:54:49.413Z,4.57
2022-08-30T12:56:57.502Z,5.65
2022-08-30T12:59:00.586Z,7.20
2022-08-30T13:01:19.496Z,11.45
2022-08-30T13:03:33.756Z,6.40
2022-08-30T13:05:48.064Z,10.63
2022-08-30T13:07:53.220Z,4.82
2022-08-30T13:10:06.956Z,7.13
2022-08-30T13:12:20.658Z,5.82
2022-08-30T13:14:33.646Z,4.93
2022-08-30T13:16:44.569Z,6.88
2022-08-30T13:18:49.986Z,7.57
2022-08-30T13:21:11.322Z,4.65
2022-08-30T13:23:25.145Z,4.45
2022-08-30T13:25:30.173Z,6.15
2022-08-30T13:27:37.631Z,7.50
2022-08-30T13:29:40.432Z,5.88
2022-08-30T13:31:45.418Z,6.32
2022-08-30T13:33:52.681Z,7.90
2022-08-30T13:35:55.541Z,5.47
2022-08-30T13:38:00.887Z,4.82
2022-08-30T13:40:07.523Z,5.72
2022-08-30T13:44:36.302Z,7.20
2022-08-30T13:46:54.155Z,9.05
2022-08-30T13:49:03.570Z,7.82
2022-08-30T13:51:07.480Z,8.40
2022-08-30T13:53:10.943Z,13.43
2022-08-30T13:55:15.121Z,7.38
2022-08-30T13:57:53.380Z,10.60
2022-08-30T13:59:43.722Z,10.30
2022-08-30T14:02:11.677Z,7.97
2022-08-30T14:04:15.797Z,12.20
2022-08-30T14:06:32.577Z,5.57
2022-08-30T14:08:45.549Z,10.48
2022-08-30T14:10:50.477Z,6.43
2022-08-30T14:13:02.812Z,8.02
2022-08-30T14:15:11.094Z,7.75
2022-08-30T14:17:13.959Z,7.28
2022-08-30T14:19:17.800Z,8.48
2022-08-30T14:21:24.243Z,13.63
2022-08-30T14:23:28.195Z,9.50
2022-08-30T14:25:31.269Z,5.57
2022-08-30T14:27:35.498Z,5.00
2022-08-30T14:29:38.458Z,9.18
2022-08-30T14:31:42.961Z,6.70
2022-08-30T14:33:46.272Z,6.07
2022-08-30T14:35:49.095Z,10.02
2022-08-30T14:37:52.256Z,5.20
2022-08-30T14:39:55.052Z,7.18
2022-08-30T14:41:57.942Z,7.57
2022-08-30T14:44:07.664Z,7.22
2022-08-30T14:46:11.620Z,6.50
2022-08-30T14:48:15.006Z,10.43
2022-08-30T14:50:18.105Z,4.53
2022-08-30T14:52:20.981Z,10.15
2022-08-30T14:54:25.938Z,7.80
2022-08-30T14:56:28.823Z,7.10
2022-08-30T14:58:31.715Z,7.78
2022-08-30T15:00:37.929Z,6.57
2022-08-30T15:02:40.862Z,8.98
2022-08-30T15:04:43.908Z,5.18
2022-08-30T15:06:48.960Z,6.60
2022-08-30T15:08:52.296Z,5.72
2022-08-30T15:10:55.182Z,5.20
2022-08-30T15:12:58.155Z,7.43
2022-08-30T15:15:01.323Z,5.95
2022-08-30T15:17:05.984Z,6.47
2022-08-30T15:19:10.923Z,5.55
2022-08-30T15:21:13.839Z,9.10
2022-08-30T15:23:17.596Z,4.95
2022-08-30T15:25:25.997Z,8.52
2022-08-30T15:27:28.804Z,10.00
2022-08-30T15:29:32.189Z,5.37
2022-08-30T15:31:35.574Z,4.97
2022-08-30T15:33:40.533Z,9.05
2022-08-30T15:35:47.097Z,4.90
2022-08-30T15:37:49.891Z,3.75
2022-08-30T15:39:53.677Z,7.07
2022-08-30T15:42:00.672Z,7.20
2022-08-30T15:44:05.285Z,5.88
2022-08-30T15:46:19.845Z,6.00
2022-08-30T15:50:29.482Z,5.40
2022-08-30T15:52:33.865Z,6.40
2022-08-30T15:54:36.809Z,6.03
2022-08-30T15:56:41.891Z,6.43
2022-08-30T15:58:45.815Z,3.72
2022-08-30T16:00:51.387Z,6.38
2022-08-30T16:02:54.340Z,6.20
2022-08-30T16:04:57.171Z,3.05
2022-08-30T16:07:01.660Z,4.75
2022-08-30T16:09:06.584Z,8.25
2022-08-30T16:11:11.123Z,4.88
2022-08-30T16:13:14.038Z,5.93
2022-08-30T16:15:17.135Z,5.10
2022-08-30T16:17:20.043Z,7.13
2022-08-30T16:19:22.884Z,4.22
2022-08-30T16:21:28.544Z,11.57
2022-08-30T16:23:33.638Z,6.35
2022-08-30T16:25:40.666Z,6.18
2022-08-30T16:27:44.334Z,7.88
2022-08-30T16:29:47.259Z,4.03
2022-08-30T16:31:53.021Z,8.48
2022-08-30T16:34:00.302Z,7.82
2022-08-30T16:36:07.212Z,4.93
2022-08-30T16:38:10.599Z,7.72
2022-08-30T16:40:15.273Z,7.32
2022-08-30T16:42:21.041Z,3.55
2022-08-30T16:44:29.845Z,8.15
2022-08-30T16:46:33.343Z,6.20
2022-08-30T16:48:36.622Z,11.02
2022-08-30T16:50:42.396Z,6.95
2022-08-30T16:52:45.493Z,7.47
2022-08-30T16:54:52.280Z,8.65
2022-08-30T16:56:56.658Z,9.30
2022-08-30T16:59:02.929Z,7.13
2022-08-30T17:01:06.632Z,7.38
2022-08-30T17:03:10.458Z,5.95
2022-08-30T17:05:13.320Z,6.28
2022-08-30T17:07:19.679Z,5.18
2022-08-30T17:09:25.363Z,4.13
2022-08-30T17:11:28.707Z,4.32
2022-08-30T17:13:33.354Z,6.82
2022-08-30T17:15:36.560Z,9.55
2022-08-30T17:17:43.292Z,12.40
2022-08-30T17:19:46.266Z,4.63
2022-08-30T17:21:49.245Z,7.53
2022-08-30T17:23:52.211Z,7.95
2022-08-30T17:25:57.115Z,6.35
2022-08-30T17:27:59.966Z,6.82
2022-08-30T17:30:05.427Z,8.93
2022-08-30T17:32:08.935Z,6.07
2022-08-30T17:34:13.224Z,11.18
2022-08-30T17:36:16.087Z,8.77
2022-08-30T17:38:19.625Z,6.15
2022-08-30T17:40:22.925Z,6.63
2022-08-30T17:42:29.701Z,5.03
2022-08-30T17:44:36.165Z,9.10
2022-08-30T17:46:41.247Z,7.82
2022-08-30T17:48:44.123Z,5.22
2022-08-30T17:50:55.861Z,9.45
2022-08-30T17:52:59.497Z,7.78
2022-08-30T17:55:02.499Z,5.35
2022-08-30T17:57:10.844Z,11.38
2022-08-30T17:59:16.479Z,8.43
2022-08-30T18:01:20.856Z,5.97
2022-08-30T18:03:25.433Z,6.03
2022-08-30T18:05:28.495Z,8.32
2022-08-30T18:07:31.409Z,5.80
2022-08-30T18:09:35.344Z,7.70
2022-08-30T18:11:40.455Z,6.05
2022-08-30T18:13:43.361Z,9.02
2022-08-30T18:15:46.514Z,4.10
2022-08-30T18:17:53.654Z,13.32
2022-08-30T18:19:57.907Z,15.98
2022-08-30T18:22:02.731Z,11.50
2022-08-30T18:24:06.996Z,6.88
2022-08-30T18:26:13.029Z,6.90
2022-08-30T18:28:16.029Z,6.20
2022-08-30T18:30:20.076Z,6.18
2022-08-30T18:32:22.966Z,10.85
2022-08-30T18:34:35.784Z,5.20
2022-08-30T18:36:40.227Z,8.73
2022-08-30T18:38:44.234Z,7.43
2022-08-30T18:40:47.471Z,12.98
2022-08-30T18:42:50.365Z,12.18
2022-08-30T18:44:53.811Z,8.57
2022-08-30T18:46:57.499Z,7.50
2022-08-30T18:49:01.219Z,9.20
2022-08-30T18:51:04.648Z,7.35
2022-08-30T18:53:09.661Z,6.93
2022-08-30T18:57:15.949Z,7.18
2022-08-30T18:59:19.592Z,4.85
2022-08-30T19:01:23.140Z,7.68
2022-08-30T19:03:26.631Z,8.77
2022-08-30T19:05:36.841Z,5.60
2022-08-30T19:07:40.408Z,6.78
2022-08-30T19:09:45.534Z,5.25
2022-08-30T19:11:48.393Z,5.40
2022-08-30T19:13:51.491Z,6.53
2022-08-30T19:15:54.874Z,7.63
2022-08-30T19:17:58.983Z,5.00
2022-08-30T19:20:01.811Z,5.40
2022-08-30T19:22:05.341Z,5.50
2022-08-30T19:24:09.552Z,6.13
2022-08-30T19:28:17.173Z,4.72
2022-08-30T19:30:28.847Z,6.28
2022-08-30T19:32:32.559Z,6.55
2022-08-30T19:34:35.628Z,4.88
2022-08-30T19:36:38.975Z,7.70
2022-08-30T19:38:44.332Z,5.68
2022-08-30T19:40:51.024Z,5.90
2022-08-30T19:42:58.317Z,6.38
2022-08-30T19:45:01.218Z,7.65
2022-08-30T19:47:05.201Z,6.80
2022-08-30T19:49:10.233Z,3.65
2022-08-30T19:51:14.966Z,4.63
2022-08-30T19:53:18.871Z,5.65
2022-08-30T19:55:28.155Z,10.10
2022-08-30T19:57:31.939Z,4.75
2022-08-30T19:59:36.527Z,6.40
2022-08-30T20:01:39.977Z,7.88
2022-08-30T20:03:44.635Z,4.50
2022-08-30T20:05:48.064Z,5.05
2022-08-30T20:07:51.870Z,7.97
2022-08-30T20:09:54.771Z,7.32
2022-08-30T20:11:59.264Z,5.07
2022-08-30T20:14:02.302Z,5.10
2022-08-30T20:16:07.578Z,4.80
2022-08-30T20:18:14.291Z,5.65
2022-08-30T20:20:20.539Z,6.15
2022-08-30T20:22:26.339Z,5.28
2022-08-30T20:24:29.949Z,7.47
2022-08-30T20:26:34.330Z,8.55
2022-08-30T20:28:38.224Z,7.03
2022-08-30T20:30:41.162Z,5.78
2022-08-30T20:32:46.813Z,7.97
2022-08-30T20:34:50.144Z,5.57
2022-08-30T20:36:52.989Z,5.23
2022-08-30T20:38:58.694Z,6.68
2022-08-30T20:41:02.679Z,6.25
2022-08-30T20:43:06.008Z,7.60
2022-08-30T20:45:09.734Z,7.30
2022-08-30T20:47:12.613Z,6.35
2022-08-30T20:49:16.803Z,4.93
2022-08-30T20:51:22.067Z,5.18
2022-08-30T20:53:25.029Z,7.78
2022-08-30T20:55:28.156Z,4.68
2022-08-30T20:57:31.044Z,3.95
2022-08-30T20:59:34.105Z,6.03
2022-08-30T21:01:38.836Z,6.82
2022-08-30T21:03:44.742Z,5.60
2022-08-30T21:05:50.545Z,4.95
2022-08-30T21:07:53.832Z,5.05
2022-08-30T21:09:56.709Z,4.60
2022-08-30T21:11:59.607Z,7.22
2022-08-30T21:14:03.008Z,7.10
2022-08-30T21:16:07.119Z,7.15
2022-08-30T21:18:10.298Z,4.78
2022-08-30T21:20:13.522Z,3.78
2022-08-30T21:22:17.661Z,6.70
2022-08-30T21:24:21.605Z,5.53
2022-08-30T21:26:25.067Z,5.95
2022-08-30T21:28:28.093Z,6.77
2022-08-30T21:30:31.167Z,7.35
2022-08-30T21:32:34.013Z,6.63
2022-08-30T21:34:57.901Z,4.03
2022-08-30T21:36:59.739Z,5.45
2022-08-30T21:39:04.685Z,7.65
2022-08-30T21:41:07.488Z,5.70
2022-08-30T21:43:10.681Z,5.72
2022-08-30T21:45:14.203Z,11.77
2022-08-30T21:47:18.923Z,6.55
2022-08-30T21:49:26.800Z,6.13
2022-08-30T21:51:33.101Z,6.93
2022-08-30T21:53:36.219Z,6.38
2022-08-30T21:55:40.780Z,5.60
2022-08-30T21:57:46.566Z,5.88
2022-08-30T21:59:52.314Z,5.18
2022-08-30T22:01:55.614Z,5.70
2022-08-30T22:04:00.895Z,6.40
2022-08-30T22:06:04.091Z,6.13
2022-08-30T22:08:06.905Z,8.00
2022-08-30T22:10:11.994Z,5.63
2022-08-30T22:12:16.279Z,5.72
2022-08-30T22:16:23.611Z,4.75
2022-08-30T22:18:26.503Z,8.73
2022-08-30T22:20:30.518Z,4.95
2022-08-30T22:22:34.696Z,7.65
2022-08-30T22:24:40.297Z,6.72
2022-08-30T22:26:43.315Z,5.57
2022-08-30T22:28:47.924Z,7.63
2022-08-30T22:30:51.301Z,6.88
2022-08-30T22:32:54.144Z,5.97
2022-08-30T22:34:57.488Z,5.95
2022-08-30T22:37:00.555Z,7.32
2022-08-30T22:39:05.024Z,7.47
2022-08-30T22:41:10.150Z,10.65
2022-08-30T22:43:13.046Z,5.55
2022-08-30T22:45:17.549Z,5.53
2022-08-30T22:47:20.380Z,5.95
2022-08-30T22:49:23.207Z,7.18
2022-08-30T22:51:26.058Z,8.05
2022-08-30T22:53:29.000Z,5.55
2022-08-30T22:55:32.342Z,7.72
2022-08-30T22:57:35.544Z,6.17
2022-08-30T22:59:38.365Z,8.73
2022-08-30T23:01:43.614Z,5.35
2022-08-30T23:03:46.570Z,8.15
2022-08-30T23:05:49.400Z,9.10
2022-08-30T23:07:52.352Z,7.68
2022-08-30T23:09:57.529Z,8.80
2022-08-30T23:12:00.636Z,8.10
2022-08-30T23:14:04.042Z,7.60
2022-08-30T23:16:09.335Z,8.23
2022-08-30T23:18:13.646Z,4.53
2022-08-30T23:22:19.539Z,4.78
2022-08-30T23:24:40.369Z,4.65
2022-08-30T23:27:03.218Z,8.63
2022-08-30T23:29:25.049Z,5.20
2022-08-30T23:31:45.542Z,11.75
2022-08-30T23:34:10.108Z,6.68
2022-08-30T23:36:32.616Z,7.72
2022-08-30T23:38:53.256Z,9.02
2022-08-30T23:41:13.694Z,4.60
2022-08-30T23:43:34.397Z,5.35
2022-08-30T23:45:55.539Z,7.97
2022-08-30T23:48:16.078Z,5.72
2022-08-30T23:50:38.146Z,6.85
2022-08-30T23:52:59.693Z,4.30
2022-08-30T23:55:20.486Z,5.50
2022-08-30T23:57:40.826Z,3.33
